sensor_id;sensor_type;location;lat;lon;timestamp;pressure;altitude;pressure_sealevel;temperature;humidity
66681;BME280;73718;51.366;12.350;2024-02-21T00:01:27;100938.22;;;7.77;100.00
66681;BME280;73718;51.366;12.350;2024-02-21T00:03:53;100932.13;;;7.76;100.00
66681;BME280;73718;51.366;12.350;2024-02-21T00:06:18;100930.44;;;7.78;100.00
66681;BME280;73718;51.366;12.350;2024-02-21T00:08:43;100924.34;;;7.76;100.00
66681;BME280;73718;51.366;12.350;2024-02-21T00:11:09;100925.13;;;7.72;100.00
66681;BME280;73718;51.366;12.350;2024-02-21T00:13:34;100919.00;;;7.67;100.00
66681;BME280;73718;51.366;12.350;2024-02-21T00:16:00;100918.06;;;7.64;100.00
66681;BME280;73718;51.366;12.350;2024-02-21T00:18:26;100911.09;;;7.63;100.00
66681;BME280;73718;51.366;12.350;2024-02-21T00:20:52;100912.84;;;7.62;100.00
66681;BME280;73718;51.366;12.350;2024-02-21T00:23:17;100906.81;;;7.63;100.00
66681;BME280;73718;51.366;12.350;2024-02-21T00:25:43;100905.91;;;7.63;100.00
66681;BME280;73718;51.366;12.350;2024-02-21T00:28:08;100909.41;;;7.63;100.00
66681;BME280;73718;51.366;12.350;2024-02-21T00:30:33;100903.28;;;7.61;100.00
66681;BME280;73718;51.366;12.350;2024-02-21T00:32:59;100902.38;;;7.59;100.00
66681;BME280;73718;51.366;12.350;2024-02-21T00:35:24;100904.16;;;7.62;100.00
66681;BME280;73718;51.366;12.350;2024-02-21T00:37:51;100901.56;;;7.62;100.00
66681;BME280;73718;51.366;12.350;2024-02-21T00:40:16;100901.56;;;7.62;100.00
66681;BME280;73718;51.366;12.350;2024-02-21T00:42:45;100893.75;;;7.60;100.00
66681;BME280;73718;51.366;12.350;2024-02-21T00:45:11;100891.09;;;7.58;100.00
66681;BME280;73718;51.366;12.350;2024-02-21T00:47:36;100884.16;;;7.59;100.00
66681;BME280;73718;51.366;12.350;2024-02-21T00:50:02;100874.56;;;7.55;100.00
66681;BME280;73718;51.366;12.350;2024-02-21T00:52:27;100870.19;;;7.51;100.00
66681;BME280;73718;51.366;12.350;2024-02-21T00:54:53;100871.03;;;7.48;100.00
66681;BME280;73718;51.366;12.350;2024-02-21T00:57:18;100869.25;;;7.47;100.00
66681;BME280;73718;51.366;12.350;2024-02-21T00:59:44;100875.34;;;7.48;100.00
66681;BME280;73718;51.366;12.350;2024-02-21T01:02:09;100864.91;;;7.45;100.00
66681;BME280;73718;51.366;12.350;2024-02-21T01:04:35;100861.44;;;7.44;100.00
66681;BME280;73718;51.366;12.350;2024-02-21T01:07:00;100866.63;;;7.44;100.00
66681;BME280;73718;51.366;12.350;2024-02-21T01:09:25;100860.59;;;7.47;100.00
66681;BME280;73718;51.366;12.350;2024-02-21T01:11:51;100859.72;;;7.46;100.00
66681;BME280;73718;51.366;12.350;2024-02-21T01:14:16;100856.28;;;7.49;100.00
66681;BME280;73718;51.366;12.350;2024-02-21T01:16:42;100851.97;;;7.51;100.00
66681;BME280;73718;51.366;12.350;2024-02-21T01:19:08;100848.53;;;7.52;100.00
66681;BME280;73718;51.366;12.350;2024-02-21T01:21:33;100848.53;;;7.52;100.00
66681;BME280;73718;51.366;12.350;2024-02-21T01:23:58;100847.66;;;7.51;100.00
66681;BME280;73718;51.366;12.350;2024-02-21T01:26:24;100850.28;;;7.53;100.00
66681;BME280;73718;51.366;12.350;2024-02-21T01:28:49;100846.81;;;7.52;100.00
66681;BME280;73718;51.366;12.350;2024-02-21T01:31:15;100839.03;;;7.54;100.00
66681;BME280;73718;51.366;12.350;2024-02-21T01:33:41;100832.94;;;7.53;100.00
66681;BME280;73718;51.366;12.350;2024-02-21T01:36:07;100827.81;;;7.56;100.00
66681;BME280;73718;51.366;12.350;2024-02-21T01:38:33;100834.72;;;7.56;100.00
66681;BME280;73718;51.366;12.350;2024-02-21T01:40:59;100825.19;;;7.56;100.00
66681;BME280;73718;51.366;12.350;2024-02-21T01:43:24;100825.22;;;7.58;100.00
66681;BME280;73718;51.366;12.350;2024-02-21T01:45:54;100820.00;;;7.58;100.00
66681;BME280;73718;51.366;12.350;2024-02-21T01:48:21;100818.28;;;7.57;100.00
66681;BME280;73718;51.366;12.350;2024-02-21T01:50:49;100808.72;;;7.56;100.00
66681;BME280;73718;51.366;12.350;2024-02-21T01:53:34;100812.19;;;7.56;100.00
66681;BME280;73718;51.366;12.350;2024-02-21T01:56:02;100815.66;;;7.57;100.00
66681;BME280;73718;51.366;12.350;2024-02-21T01:58:28;100816.53;;;7.59;100.00
66681;BME280;73718;51.366;12.350;2024-02-21T02:00:56;100807.00;;;7.58;100.00
66681;BME280;73718;51.366;12.350;2024-02-21T02:03:21;100811.34;;;7.59;100.00
66681;BME280;73718;51.366;12.350;2024-02-21T02:05:49;100803.53;;;7.59;100.00
66681;BME280;73718;51.366;12.350;2024-02-21T02:08:18;100803.53;;;7.57;100.00
66681;BME280;73718;51.366;12.350;2024-02-21T02:10:44;100793.19;;;7.61;100.00
66681;BME280;73718;51.366;12.350;2024-02-21T02:13:10;100794.03;;;7.61;100.00
66681;BME280;73718;51.366;12.350;2024-02-21T02:18:08;100793.13;;;7.59;100.00
66681;BME280;73718;51.366;12.350;2024-02-21T02:20:35;100777.53;;;7.56;100.00
66681;BME280;73718;51.366;12.350;2024-02-21T02:25:48;100768.84;;;7.55;100.00
66681;BME280;73718;51.366;12.350;2024-02-21T02:28:16;100770.63;;;7.61;100.00
66681;BME280;73718;51.366;12.350;2024-02-21T02:30:41;100763.69;;;7.60;100.00
66681;BME280;73718;51.366;12.350;2024-02-21T02:33:07;100763.69;;;7.60;100.00
66681;BME280;73718;51.366;12.350;2024-02-21T02:35:32;100759.31;;;7.57;100.00
66681;BME280;73718;51.366;12.350;2024-02-21T02:37:58;100761.94;;;7.59;100.00
66681;BME280;73718;51.366;12.350;2024-02-21T02:40:24;100747.19;;;7.58;100.00
66681;BME280;73718;51.366;12.350;2024-02-21T02:42:50;100746.31;;;7.59;100.00
66681;BME280;73718;51.366;12.350;2024-02-21T02:45:16;100751.56;;;7.61;100.00
66681;BME280;73718;51.366;12.350;2024-02-21T02:47:42;100754.16;;;7.62;100.00
66681;BME280;73718;51.366;12.350;2024-02-21T02:50:07;100763.75;;;7.65;100.00
66681;BME280;73718;51.366;12.350;2024-02-21T02:52:33;100756.88;;;7.70;100.00
66681;BME280;73718;51.366;12.350;2024-02-21T02:54:58;100756.81;;;7.67;100.00
66681;BME280;73718;51.366;12.350;2024-02-21T02:57:24;100758.56;;;7.66;100.00
66681;BME280;73718;51.366;12.350;2024-02-21T02:59:52;100758.56;;;7.65;100.00
66681;BME280;73718;51.366;12.350;2024-02-21T03:02:18;100756.78;;;7.62;100.00
66681;BME280;73718;51.366;12.350;2024-02-21T03:04:44;100748.97;;;7.61;100.00
66681;BME280;73718;51.366;12.350;2024-02-21T03:07:09;100757.63;;;7.60;100.00
66681;BME280;73718;51.366;12.350;2024-02-21T03:09:37;100751.56;;;7.62;100.00
66681;BME280;73718;51.366;12.350;2024-02-21T03:12:03;100749.84;;;7.61;100.00
66681;BME280;73718;51.366;12.350;2024-02-21T03:14:29;100742.88;;;7.60;100.00
66681;BME280;73718;51.366;12.350;2024-02-21T03:16:54;100742.03;;;7.61;100.00
66681;BME280;73718;51.366;12.350;2024-02-21T03:19:20;100732.50;;;7.60;100.00
66681;BME280;73718;51.366;12.350;2024-02-21T03:21:45;100740.25;;;7.58;100.00
66681;BME280;73718;51.366;12.350;2024-02-21T03:24:11;100738.50;;;7.56;100.00
66681;BME280;73718;51.366;12.350;2024-02-21T03:26:36;100740.25;;;7.57;100.00
66681;BME280;73718;51.366;12.350;2024-02-21T03:29:01;100741.97;;;7.58;100.00
66681;BME280;73718;51.366;12.350;2024-02-21T03:31:27;100738.50;;;7.57;100.00
66681;BME280;73718;51.366;12.350;2024-02-21T03:33:53;100746.31;;;7.59;100.00
66681;BME280;73718;51.366;12.350;2024-02-21T03:36:18;100742.88;;;7.60;100.00
66681;BME280;73718;51.366;12.350;2024-02-21T03:38:44;100746.31;;;7.59;100.00
66681;BME280;73718;51.366;12.350;2024-02-21T03:41:10;100739.44;;;7.60;100.00
66681;BME280;73718;51.366;12.350;2024-02-21T03:43:37;100743.75;;;7.61;100.00
66681;BME280;73718;51.366;12.350;2024-02-21T03:46:03;100739.44;;;7.61;100.00
66681;BME280;73718;51.366;12.350;2024-02-21T03:48:28;100739.44;;;7.63;100.00
66681;BME280;73718;51.366;12.350;2024-02-21T03:50:54;100754.22;;;7.64;100.00
66681;BME280;73718;51.366;12.350;2024-02-21T03:53:19;100751.63;;;7.65;100.00
66681;BME280;73718;51.366;12.350;2024-02-21T03:55:45;100746.41;;;7.65;100.00
66681;BME280;73718;51.366;12.350;2024-02-21T03:58:10;100748.19;;;7.69;100.00
66681;BME280;73718;51.366;12.350;2024-02-21T04:00:35;100744.72;;;7.67;100.00
66681;BME280;73718;51.366;12.350;2024-02-21T04:03:01;100751.63;;;7.67;100.00
66681;BME280;73718;51.366;12.350;2024-02-21T04:05:28;100742.94;;;7.66;100.00
66681;BME280;73718;51.366;12.350;2024-02-21T04:07:53;100743.81;;;7.67;100.00
66681;BME280;73718;51.366;12.350;2024-02-21T04:10:19;100745.53;;;7.65;100.00
66681;BME280;73718;51.366;12.350;2024-02-21T04:12:44;100743.81;;;7.65;100.00
66681;BME280;73718;51.366;12.350;2024-02-21T04:15:09;100740.34;;;7.63;100.00
66681;BME280;73718;51.366;12.350;2024-02-21T04:17:36;100736.88;;;7.64;100.00
66681;BME280;73718;51.366;12.350;2024-02-21T04:20:05;100726.41;;;7.61;100.00
66681;BME280;73718;51.366;12.350;2024-02-21T04:22:34;100726.41;;;7.60;100.00
66681;BME280;73718;51.366;12.350;2024-02-21T04:25:00;100724.69;;;7.62;100.00
66681;BME280;73718;51.366;12.350;2024-02-21T04:27:26;100724.69;;;7.62;100.00
66681;BME280;73718;51.366;12.350;2024-02-21T04:29:52;100716.94;;;7.63;100.00
66681;BME280;73718;51.366;12.350;2024-02-21T04:32:18;100714.28;;;7.60;100.00
66681;BME280;73718;51.366;12.350;2024-02-21T04:34:44;100704.75;;;7.62;100.00
66681;BME280;73718;51.366;12.350;2024-02-21T04:37:09;100702.16;;;7.61;100.00
66681;BME280;73718;51.366;12.350;2024-02-21T04:39:35;100714.31;;;7.63;100.00
66681;BME280;73718;51.366;12.350;2024-02-21T04:42:00;100705.56;;;7.58;100.00
66681;BME280;73718;51.366;12.350;2024-02-21T04:44:26;100703.84;;;7.57;100.00
66681;BME280;73718;51.366;12.350;2024-02-21T04:46:51;100694.28;;;7.56;100.00
66681;BME280;73718;51.366;12.350;2024-02-21T04:49:17;100689.94;;;7.55;100.00
66681;BME280;73718;51.366;12.350;2024-02-21T04:51:42;100687.31;;;7.55;100.00
66681;BME280;73718;51.366;12.350;2024-02-21T04:54:08;100683.00;;;7.54;100.00
66681;BME280;73718;51.366;12.350;2024-02-21T04:56:34;100680.38;;;7.54;100.00
66681;BME280;73718;51.366;12.350;2024-02-21T04:58:59;100667.38;;;7.54;100.00
66681;BME280;73718;51.366;12.350;2024-02-21T05:01:25;100678.66;;;7.53;100.00
66681;BME280;73718;51.366;12.350;2024-02-21T05:03:50;100677.78;;;7.54;100.00
66681;BME280;73718;51.366;12.350;2024-02-21T05:06:16;100659.56;;;7.52;100.00
66681;BME280;73718;51.366;12.350;2024-02-21T05:08:42;100663.00;;;7.50;100.00
66681;BME280;73718;51.366;12.350;2024-02-21T05:11:07;100650.00;;;7.51;100.00
66681;BME280;73718;51.366;12.350;2024-02-21T05:13:33;100641.34;;;7.49;100.00
66681;BME280;73718;51.366;12.350;2024-02-21T05:15:58;100633.53;;;7.48;100.00
66681;BME280;73718;51.366;12.350;2024-02-21T05:18:27;100633.53;;;7.51;100.00
66681;BME280;73718;51.366;12.350;2024-02-21T05:20:53;100630.09;;;7.52;100.00
66681;BME280;73718;51.366;12.350;2024-02-21T05:23:18;100630.97;;;7.52;100.00
66681;BME280;73718;51.366;12.350;2024-02-21T05:25:44;100627.50;;;7.53;100.00
66681;BME280;73718;51.366;12.350;2024-02-21T05:28:09;100628.41;;;7.55;100.00
66681;BME280;73718;51.366;12.350;2024-02-21T05:30:35;100624.91;;;7.53;100.00
66681;BME280;73718;51.366;12.350;2024-02-21T05:33:08;100625.78;;;7.54;100.00
66681;BME280;73718;51.366;12.350;2024-02-21T05:35:34;100633.63;;;7.55;100.00
66681;BME280;73718;51.366;12.350;2024-02-21T05:37:59;100624.03;;;7.54;100.00
66681;BME280;73718;51.366;12.350;2024-02-21T05:40:25;100624.03;;;7.53;100.00
66681;BME280;73718;51.366;12.350;2024-02-21T05:42:51;100617.97;;;7.54;100.00
66681;BME280;73718;51.366;12.350;2024-02-21T05:45:17;100615.41;;;7.55;100.00
66681;BME280;73718;51.366;12.350;2024-02-21T05:47:43;100623.22;;;7.57;100.00
66681;BME280;73718;51.366;12.350;2024-02-21T05:50:09;100624.94;;;7.56;100.00
66681;BME280;73718;51.366;12.350;2024-02-21T05:52:35;100617.16;;;7.58;100.00
66681;BME280;73718;51.366;12.350;2024-02-21T05:55:00;100616.28;;;7.57;100.00
66681;BME280;73718;51.366;12.350;2024-02-21T05:57:26;100620.66;;;7.60;100.00
66681;BME280;73718;51.366;12.350;2024-02-21T05:59:51;100608.53;;;7.61;100.00
66681;BME280;73718;51.366;12.350;2024-02-21T06:02:19;100605.06;;;7.60;100.00
66681;BME280;73718;51.366;12.350;2024-02-21T06:04:45;100601.59;;;7.60;100.00
66681;BME280;73718;51.366;12.350;2024-02-21T06:07:11;100585.91;;;7.53;100.00
66681;BME280;73718;51.366;12.350;2024-02-21T06:09:37;100587.56;;;7.47;100.00
66681;BME280;73718;51.366;12.350;2024-02-21T06:12:02;100583.13;;;7.40;100.00
66681;BME280;73718;51.366;12.350;2024-02-21T06:14:28;100589.97;;;7.31;100.00
66681;BME280;73718;51.366;12.350;2024-02-21T06:16:53;100589.06;;;7.28;100.00
66681;BME280;73718;51.366;12.350;2024-02-21T06:19:18;100584.69;;;7.22;100.00
66681;BME280;73718;51.366;12.350;2024-02-21T06:21:44;100582.06;;;7.21;100.00
66681;BME280;73718;51.366;12.350;2024-02-21T06:24:09;100580.34;;;7.23;100.00
66681;BME280;73718;51.366;12.350;2024-02-21T06:26:35;100588.16;;;7.21;100.00
66681;BME280;73718;51.366;12.350;2024-02-21T06:29:00;100604.63;;;7.23;100.00
66681;BME280;73718;51.366;12.350;2024-02-21T06:31:27;100619.44;;;7.30;100.00
66681;BME280;73718;51.366;12.350;2024-02-21T06:33:53;100622.97;;;7.36;100.00
66681;BME280;73718;51.366;12.350;2024-02-21T06:36:19;100625.59;;;7.40;100.00
66681;BME280;73718;51.366;12.350;2024-02-21T06:38:44;100627.41;;;7.44;100.00
66681;BME280;73718;51.366;12.350;2024-02-21T06:41:17;100636.09;;;7.46;100.00
66681;BME280;73718;51.366;12.350;2024-02-21T06:43:47;100648.25;;;7.49;100.00
66681;BME280;73718;51.366;12.350;2024-02-21T06:46:25;100652.59;;;7.51;100.00
66681;BME280;73718;51.366;12.350;2024-02-21T06:48:50;100651.78;;;7.52;100.00
66681;BME280;73718;51.366;12.350;2024-02-21T06:51:16;100652.69;;;7.57;100.00
66681;BME280;73718;51.366;12.350;2024-02-21T06:53:42;100667.47;;;7.62;100.00
66681;BME280;73718;51.366;12.350;2024-02-21T06:56:09;100673.63;;;7.68;100.00
66681;BME280;73718;51.366;12.350;2024-02-21T06:58:34;100670.19;;;7.71;100.00
66681;BME280;73718;51.366;12.350;2024-02-21T07:01:00;100678.00;;;7.71;100.00
66681;BME280;73718;51.366;12.350;2024-02-21T07:03:26;100672.84;;;7.77;100.00
66681;BME280;73718;51.366;12.350;2024-02-21T07:05:52;100683.25;;;7.77;100.00
66681;BME280;73718;51.366;12.350;2024-02-21T07:08:17;100675.44;;;7.77;100.00
66681;BME280;73718;51.366;12.350;2024-02-21T07:10:43;100659.88;;;7.81;100.00
66681;BME280;73718;51.366;12.350;2024-02-21T07:13:08;100656.41;;;7.81;100.00
66681;BME280;73718;51.366;12.350;2024-02-21T07:15:34;100671.16;;;7.80;100.00
66681;BME280;73718;51.366;12.350;2024-02-21T07:17:59;100672.03;;;7.81;100.00
66681;BME280;73718;51.366;12.350;2024-02-21T07:20:24;100673.81;;;7.85;100.00
66681;BME280;73718;51.366;12.350;2024-02-21T07:22:50;100667.75;;;7.88;100.00
66681;BME280;73718;51.366;12.350;2024-02-21T07:25:16;100678.19;;;7.89;100.00
66681;BME280;73718;51.366;12.350;2024-02-21T07:27:42;100674.75;;;7.93;100.00
66681;BME280;73718;51.366;12.350;2024-02-21T07:30:08;100677.34;;;7.92;100.00
66681;BME280;73718;51.366;12.350;2024-02-21T07:32:33;100677.34;;;7.92;100.00
66681;BME280;73718;51.366;12.350;2024-02-21T07:34:59;100672.13;;;7.92;100.00
66681;BME280;73718;51.366;12.350;2024-02-21T07:37:24;100679.09;;;7.93;100.00
66681;BME280;73718;51.366;12.350;2024-02-21T07:39:49;100672.19;;;7.95;100.00
66681;BME280;73718;51.366;12.350;2024-02-21T07:42:15;100668.72;;;7.94;100.00
66681;BME280;73718;51.366;12.350;2024-02-21T07:44:41;100674.81;;;7.98;100.00
66681;BME280;73718;51.366;12.350;2024-02-21T07:47:06;100663.53;;;8.00;100.00
66681;BME280;73718;51.366;12.350;2024-02-21T07:49:32;100652.31;;;8.04;100.00
66681;BME280;73718;51.366;12.350;2024-02-21T07:52:00;100648.00;;;8.06;100.00
66681;BME280;73718;51.366;12.350;2024-02-21T07:54:25;100635.88;;;8.10;100.00
66681;BME280;73718;51.366;12.350;2024-02-21T07:56:51;100633.31;;;8.16;100.00
66681;BME280;73718;51.366;12.350;2024-02-21T07:59:16;100634.28;;;8.24;100.00
66681;BME280;73718;51.366;12.350;2024-02-21T08:01:42;100631.72;;;8.29;100.00
66681;BME280;73718;51.366;12.350;2024-02-21T08:04:09;100623.94;;;8.34;100.00
66681;BME280;73718;51.366;12.350;2024-02-21T08:06:35;100608.31;;;8.35;100.00
66681;BME280;73718;51.366;12.350;2024-02-21T08:09:00;100608.31;;;8.35;100.00
66681;BME280;73718;51.366;12.350;2024-02-21T08:11:26;100605.72;;;8.35;100.00
66681;BME280;73718;51.366;12.350;2024-02-21T08:13:51;100607.50;;;8.39;100.00
66681;BME280;73718;51.366;12.350;2024-02-21T08:16:17;100610.16;;;8.44;100.00
66681;BME280;73718;51.366;12.350;2024-02-21T08:18:44;100611.97;;;8.54;100.00
66681;BME280;73718;51.366;12.350;2024-02-21T08:21:09;100604.22;;;8.65;100.00
66681;BME280;73718;51.366;12.350;2024-02-21T08:23:35;100604.28;;;8.74;100.00
66681;BME280;73718;51.366;12.350;2024-02-21T08:26:03;100593.91;;;8.82;100.00
66681;BME280;73718;51.366;12.350;2024-02-21T08:28:29;100601.75;;;8.88;100.00
66681;BME280;73718;51.366;12.350;2024-02-21T08:30:54;100606.09;;;8.87;100.00
66681;BME280;73718;51.366;12.350;2024-02-21T08:33:20;100601.78;;;8.89;100.00
66681;BME280;73718;51.366;12.350;2024-02-21T08:35:50;100601.75;;;8.88;100.00
66681;BME280;73718;51.366;12.350;2024-02-21T08:38:15;100597.34;;;8.81;100.00
66681;BME280;73718;51.366;12.350;2024-02-21T08:40:40;100617.28;;;8.71;100.00
66681;BME280;73718;51.366;12.350;2024-02-21T08:43:06;100616.31;;;8.58;100.00
66681;BME280;73718;51.366;12.350;2024-02-21T08:45:31;100617.19;;;8.56;100.00
66681;BME280;73718;51.366;12.350;2024-02-21T08:47:57;100621.50;;;8.52;100.00
66681;BME280;73718;51.366;12.350;2024-02-21T08:50:22;100615.38;;;8.47;100.00
66681;BME280;73718;51.366;12.350;2024-02-21T08:52:48;100607.56;;;8.45;100.00
66681;BME280;73718;51.366;12.350;2024-02-21T08:55:13;100615.38;;;8.44;100.00
66681;BME280;73718;51.366;12.350;2024-02-21T08:57:38;100604.97;;;8.44;100.00
66681;BME280;73718;51.366;12.350;2024-02-21T09:00:05;100618.84;;;8.46;100.00
66681;BME280;73718;51.366;12.350;2024-02-21T09:02:41;100614.50;;;8.43;100.00
66681;BME280;73718;51.366;12.350;2024-02-21T09:05:09;100611.03;;;8.44;100.00
66681;BME280;73718;51.366;12.350;2024-02-21T09:07:34;100618.00;;;8.50;100.00
66681;BME280;73718;51.366;12.350;2024-02-21T09:10:00;100617.16;;;8.51;100.00
66681;BME280;73718;51.366;12.350;2024-02-21T09:12:26;100631.03;;;8.50;100.00
66681;BME280;73718;51.366;12.350;2024-02-21T09:14:51;100613.66;;;8.47;100.00
66681;BME280;73718;51.366;12.350;2024-02-21T09:17:17;100614.53;;;8.48;100.00
66681;BME280;73718;51.366;12.350;2024-02-21T09:19:44;100625.84;;;8.51;100.00
66681;BME280;73718;51.366;12.350;2024-02-21T09:22:09;100618.97;;;8.66;100.00
66681;BME280;73718;51.366;12.350;2024-02-21T09:24:35;100617.31;;;8.75;100.00
66681;BME280;73718;51.366;12.350;2024-02-21T09:27:00;100613.81;;;8.70;100.00
66681;BME280;73718;51.366;12.350;2024-02-21T09:29:26;100613.84;;;8.76;99.86
66681;BME280;73718;51.366;12.350;2024-02-21T09:31:51;100619.06;;;8.79;99.66
66681;BME280;73718;51.366;12.350;2024-02-21T09:34:17;100616.47;;;8.79;99.81
66681;BME280;73718;51.366;12.350;2024-02-21T09:36:44;100606.94;;;8.82;99.65
66681;BME280;73718;51.366;12.350;2024-02-21T09:39:10;100607.81;;;8.85;99.91
66681;BME280;73718;51.366;12.350;2024-02-21T09:41:53;100595.66;;;8.87;100.00
66681;BME280;73718;51.366;12.350;2024-02-21T09:44:24;100606.97;;;8.92;99.41
66681;BME280;73718;51.366;12.350;2024-02-21T09:46:52;100607.91;;;8.97;98.75
66681;BME280;73718;51.366;12.350;2024-02-21T09:49:31;100615.78;;;9.08;98.60
66681;BME280;73718;51.366;12.350;2024-02-21T09:52:04;100602.75;;;9.08;97.94
66681;BME280;73718;51.366;12.350;2024-02-21T09:54:30;100604.47;;;9.11;97.49
66681;BME280;73718;51.366;12.350;2024-02-21T09:56:59;100601.91;;;9.26;96.86
66681;BME280;73718;51.366;12.350;2024-02-21T09:59:25;100596.72;;;9.26;96.16
66681;BME280;73718;51.366;12.350;2024-02-21T10:01:52;100615.84;;;9.28;96.05
66681;BME280;73718;51.366;12.350;2024-02-21T10:04:18;100598.47;;;9.30;96.31
66681;BME280;73718;51.366;12.350;2024-02-21T10:06:44;100588.94;;;9.40;95.78
66681;BME280;73718;51.366;12.350;2024-02-21T10:09:22;100590.66;;;9.38;96.08
66681;BME280;73718;51.366;12.350;2024-02-21T10:11:49;100582.88;;;9.44;95.24
66681;BME280;73718;51.366;12.350;2024-02-21T10:14:15;100575.03;;;9.50;94.85
66681;BME280;73718;51.366;12.350;2024-02-21T10:16:41;100580.28;;;9.55;94.15
66681;BME280;73718;51.366;12.350;2024-02-21T10:19:06;100580.28;;;9.59;93.50
66681;BME280;73718;51.366;12.350;2024-02-21T10:21:31;100577.69;;;9.59;93.47
66681;BME280;73718;51.366;12.350;2024-02-21T10:23:57;100567.25;;;9.64;93.45
66681;BME280;73718;51.366;12.350;2024-02-21T10:26:22;100578.56;;;9.66;92.67
66681;BME280;73718;51.366;12.350;2024-02-21T10:28:48;100572.47;;;9.71;92.99
66681;BME280;73718;51.366;12.350;2024-02-21T10:31:26;100572.50;;;9.79;91.91
66681;BME280;73718;51.366;12.350;2024-02-21T10:33:59;100572.50;;;9.84;91.46
66681;BME280;73718;51.366;12.350;2024-02-21T10:36:29;100560.34;;;9.89;91.01
66681;BME280;73718;51.366;12.350;2024-02-21T10:38:55;100561.19;;;9.94;91.00
66681;BME280;73718;51.366;12.350;2024-02-21T10:41:21;100555.09;;;9.98;90.86
66681;BME280;73718;51.366;12.350;2024-02-21T10:43:52;100569.00;;;10.03;90.68
66681;BME280;73718;51.366;12.350;2024-02-21T10:46:19;100569.03;;;10.01;89.93
66681;BME280;73718;51.366;12.350;2024-02-21T10:48:46;100554.22;;;9.91;90.91
66681;BME280;73718;51.366;12.350;2024-02-21T10:51:18;100552.47;;;10.02;90.37
66681;BME280;73718;51.366;12.350;2024-02-21T10:54:05;100557.69;;;10.07;89.54
66681;BME280;73718;51.366;12.350;2024-02-21T10:56:38;100551.63;;;9.97;90.41
66681;BME280;73718;51.366;12.350;2024-02-21T10:59:06;100548.13;;;10.03;90.48
66681;BME280;73718;51.366;12.350;2024-02-21T11:01:32;100542.06;;;9.89;90.10
66681;BME280;73718;51.366;12.350;2024-02-21T11:04:11;100530.75;;;9.96;90.98
66681;BME280;73718;51.366;12.350;2024-02-21T11:06:38;100531.59;;;9.99;90.46
66681;BME280;73718;51.366;12.350;2024-02-21T11:09:09;100518.53;;;10.13;89.53
66681;BME280;73718;51.366;12.350;2024-02-21T11:11:35;100518.53;;;10.21;90.02
66681;BME280;73718;51.366;12.350;2024-02-21T11:14:10;100505.50;;;10.32;89.44
66681;BME280;73718;51.366;12.350;2024-02-21T11:16:40;100508.97;;;10.31;89.36
66681;BME280;73718;51.366;12.350;2024-02-21T11:19:06;100508.94;;;10.18;89.25
66681;BME280;73718;51.366;12.350;2024-02-21T11:21:36;100488.94;;;10.17;90.04
66681;BME280;73718;51.366;12.350;2024-02-21T11:24:04;100495.03;;;10.19;89.21
66681;BME280;73718;51.366;12.350;2024-02-21T11:26:30;100483.72;;;10.23;89.71
66681;BME280;73718;51.366;12.350;2024-02-21T11:29:00;100479.34;;;10.18;89.52
66681;BME280;73718;51.366;12.350;2024-02-21T11:31:38;100460.22;;;10.19;89.46
66681;BME280;73718;51.366;12.350;2024-02-21T11:34:04;100457.63;;;10.31;89.69
66681;BME280;73718;51.366;12.350;2024-02-21T11:36:30;100444.47;;;10.45;89.45
66681;BME280;73718;51.366;12.350;2024-02-21T11:39:03;100455.78;;;10.48;87.92
66681;BME280;73718;51.366;12.350;2024-02-21T11:41:29;100442.78;;;10.36;88.46
66681;BME280;73718;51.366;12.350;2024-02-21T11:43:55;100447.13;;;10.37;88.67
66681;BME280;73718;51.366;12.350;2024-02-21T11:46:21;100434.97;;;10.35;88.86
66681;BME280;73718;51.366;12.350;2024-02-21T11:48:46;100428.88;;;10.33;89.30
66681;BME280;73718;51.366;12.350;2024-02-21T11:51:25;100417.53;;;10.38;89.56
66681;BME280;73718;51.366;12.350;2024-02-21T11:53:52;100410.50;;;10.53;89.29
66681;BME280;73718;51.366;12.350;2024-02-21T11:56:18;100403.56;;;10.50;88.63
66681;BME280;73718;51.366;12.350;2024-02-21T11:58:43;100393.97;;;10.44;89.06
66681;BME280;73718;51.366;12.350;2024-02-21T12:01:09;100403.59;;;10.36;89.64
66681;BME280;73718;51.366;12.350;2024-02-21T12:03:35;100391.38;;;10.41;90.24
66681;BME280;73718;51.366;12.350;2024-02-21T12:06:03;100395.72;;;10.48;89.84
66681;BME280;73718;51.366;12.350;2024-02-21T12:08:43;100389.63;;;10.48;89.94
66681;BME280;73718;51.366;12.350;2024-02-21T12:11:23;100381.75;;;10.57;90.30
66681;BME280;73718;51.366;12.350;2024-02-21T12:13:59;100378.09;;;10.83;89.38
66681;BME280;73718;51.366;12.350;2024-02-21T12:16:27;100379.75;;;10.97;88.63
66681;BME280;73718;51.366;12.350;2024-02-21T12:18:53;100365.81;;;10.97;87.70
66681;BME280;73718;51.366;12.350;2024-02-21T12:21:19;100364.19;;;10.84;87.54
66681;BME280;73718;51.366;12.350;2024-02-21T12:23:44;100365.03;;;10.80;88.05
66681;BME280;73718;51.366;12.350;2024-02-21T12:26:12;100366.78;;;10.79;88.06
66681;BME280;73718;51.366;12.350;2024-02-21T12:28:37;100363.34;;;10.76;88.64
66681;BME280;73718;51.366;12.350;2024-02-21T12:31:03;100352.09;;;10.63;88.96
66681;BME280;73718;51.366;12.350;2024-02-21T12:33:29;100352.13;;;10.61;89.24
66681;BME280;73718;51.366;12.350;2024-02-21T12:35:55;100345.09;;;10.69;89.48
66681;BME280;73718;51.366;12.350;2024-02-21T12:38:20;100346.72;;;10.86;89.19
66681;BME280;73718;51.366;12.350;2024-02-21T12:40:46;100351.13;;;10.81;88.77
66681;BME280;73718;51.366;12.350;2024-02-21T12:43:11;100342.44;;;10.77;88.96